Time;durP1;ratioP1;P1;durP2;ratioP2;P2;SDS_P1;SDS_P2;PMS_P1;PMS_P2;Temp;Humidity;BMP_temperature;BMP_pressure;BME280_temperature;BME280_humidity;BME280_pressure;Samples;Min_cycle;Max_cycle;Signal;HPM_P1;HPM_P2
2022/08/09 00:02:09;;;;;;;0.10;0.10;;;15.10;99.90;;;;;;5084342;28;20465;-69
2022/08/09 00:04:35;;;;;;;0.03;0.03;;;15.10;99.90;;;;;;5085344;28;20047;-69
2022/08/09 00:07:01;;;;;;;0.25;0.10;;;15.00;99.90;;;;;;5035091;28;20047;-69
2022/08/09 00:09:27;;;;;;;0.10;0.10;;;15.00;99.90;;;;;;5082457;28;20035;-69
2022/08/09 00:11:53;;;;;;;0.10;0.10;;;15.00;99.90;;;;;;5066365;28;20044;-69
2022/08/09 00:14:19;;;;;;;0.00;0.00;;;15.00;99.90;;;;;;5054634;28;20483;-69
2022/08/09 00:16:44;;;;;;;0.10;0.10;;;14.90;99.90;;;;;;5049825;28;20075;-69
2022/08/09 00:19:10;;;;;;;0.20;0.10;;;14.90;99.90;;;;;;5052190;28;20048;-69
2022/08/09 00:21:37;;;;;;;0.03;0.03;;;14.90;99.90;;;;;;5064832;28;20110;-69
2022/08/09 00:24:03;;;;;;;0.10;0.10;;;14.60;99.90;;;;;;5082465;28;20059;-69
2022/08/09 00:26:29;;;;;;;0.15;0.10;;;14.60;99.90;;;;;;5085047;28;20514;-69
2022/08/09 00:28:55;;;;;;;0.38;0.20;;;14.60;99.90;;;;;;5067052;28;20109;-69
2022/08/09 00:31:22;;;;;;;0.20;0.10;;;14.50;99.90;;;;;;5057743;28;20380;-69
2022/08/09 00:33:48;;;;;;;0.45;0.22;;;14.50;99.90;;;;;;5056026;28;20044;-69
2022/08/09 00:36:14;;;;;;;0.20;0.10;;;14.40;99.90;;;;;;5075252;28;20149;-69
2022/08/09 00:38:40;;;;;;;0.20;0.20;;;14.40;99.90;;;;;;5075919;28;20044;-69
2022/08/09 00:41:06;;;;;;;0.25;0.10;;;14.30;99.90;;;;;;5064777;28;20051;-69
2022/08/09 00:43:35;;;;;;;;;;;14.20;99.90;;;;;;5038449;28;20483;-69
2022/08/09 00:46:02;;;;;;;0.10;0.10;;;14.20;99.90;;;;;;5085088;28;19924;-70
2022/08/09 00:48:28;;;;;;;0.10;0.10;;;14.10;99.90;;;;;;5088565;28;20476;-69
2022/08/09 00:50:54;;;;;;;0.20;0.20;;;14.10;99.90;;;;;;5054363;28;20051;-69
2022/08/09 00:53:21;;;;;;;0.30;0.10;;;14.10;99.90;;;;;;5051846;28;20040;-69
2022/08/09 00:55:46;;;;;;;0.10;0.10;;;13.90;99.90;;;;;;5087384;28;20036;-70
2022/08/09 00:58:12;;;;;;;0.15;0.10;;;13.80;99.90;;;;;;5085302;28;20490;-69
2022/08/09 01:00:40;;;;;;;0.28;0.20;;;13.90;99.90;;;;;;5055240;28;20150;-69
2022/08/09 01:03:38;;;;;;;0.20;0.17;;;13.80;99.90;;;;;;5054143;28;20078;-69
2022/08/09 01:06:16;;;;;;;;;;;13.90;99.90;;;;;;5039148;28;20052;-69
2022/08/09 01:09:14;;;;;;;;;;;13.70;99.90;;;;;;5084276;28;20380;-69
2022/08/09 01:12:12;;;;;;;0.70;0.20;;;13.80;99.90;;;;;;5015162;28;19962;-69
2022/08/09 01:14:51;;;;;;;0.20;0.20;;;13.70;99.90;;;;;;5072590;28;20072;-69
2022/08/09 01:17:22;;;;;;;0.22;0.22;;;13.70;99.90;;;;;;5053553;28;20040;-69
2022/08/09 01:20:01;;;;;;;0.10;0.10;;;13.60;99.90;;;;;;5069609;28;20067;-69
2022/08/09 01:22:36;;;;;;;0.13;0.10;;;13.50;99.90;;;;;;5085119;28;20041;-69
2022/08/09 01:25:18;;;;;;;0.10;0.10;;;13.60;99.90;;;;;;5052666;28;20059;-69
2022/08/09 01:27:48;;;;;;;0.30;0.20;;;13.50;99.90;;;;;;5084938;28;20041;-69
2022/08/09 01:30:14;;;;;;;0.17;0.17;;;13.40;99.90;;;;;;5089533;28;20047;-69
2022/08/09 01:32:44;;;;;;;0.20;0.10;;;13.50;99.90;;;;;;5058295;28;20044;-69
2022/08/09 01:35:22;;;;;;;0.28;0.10;;;13.30;99.90;;;;;;5064761;28;20080;-69
2022/08/09 01:37:54;;;;;;;0.20;0.10;;;13.40;99.90;;;;;;5055092;28;20044;-69
2022/08/09 01:40:23;;;;;;;0.38;0.20;;;13.40;99.90;;;;;;5054892;28;20071;-69
2022/08/09 01:42:49;;;;;;;0.10;0.10;;;13.40;99.90;;;;;;5071360;28;20048;-69
2022/08/09 01:45:17;;;;;;;0.10;0.10;;;13.30;99.90;;;;;;5088651;28;20032;-69
2022/08/09 01:47:45;;;;;;;0.10;0.10;;;13.20;99.90;;;;;;5091084;28;20479;-69
2022/08/09 01:50:12;;;;;;;0.10;0.10;;;13.20;99.90;;;;;;5069290;28;20248;-69
2022/08/09 01:52:39;;;;;;;0.10;0.10;;;13.20;99.90;;;;;;5052977;28;20079;-69
2022/08/09 01:55:06;;;;;;;0.13;0.13;;;13.20;99.90;;;;;;5086976;28;20051;-69
2022/08/09 01:57:39;;;;;;;0.20;0.10;;;13.20;99.90;;;;;;5048308;28;20123;-69
2022/08/09 02:00:08;;;;;;;0.17;0.10;;;13.20;99.90;;;;;;5074686;28;20391;-69
2022/08/09 02:02:42;;;;;;;0.22;0.22;;;13.10;99.90;;;;;;5055745;28;20495;-69
2022/08/09 02:05:10;;;;;;;0.25;0.00;;;13.10;99.90;;;;;;5054130;28;20115;-69
2022/08/09 02:07:39;;;;;;;0.00;0.00;;;13.10;99.90;;;;;;5050950;28;20048;-70
2022/08/09 02:10:29;;;;;;;0.20;0.20;;;13.00;99.90;;;;;;5051841;28;20102;-69
2022/08/09 02:12:58;;;;;;;0.30;0.25;;;13.10;99.90;;;;;;5065951;28;20127;-69
2022/08/09 02:15:25;;;;;;;0.10;0.10;;;13.10;99.90;;;;;;5053440;28;20132;-69
2022/08/09 02:17:53;;;;;;;0.20;0.20;;;12.90;99.90;;;;;;5051446;28;20641;-69
2022/08/09 02:20:19;;;;;;;0.20;0.20;;;13.00;99.90;;;;;;5052600;28;20786;-69
2022/08/09 02:22:54;;;;;;;0.10;0.10;;;13.00;99.90;;;;;;5083398;28;20045;-70
2022/08/09 02:25:27;;;;;;;0.10;0.10;;;12.80;99.90;;;;;;5054256;28;20037;-69
2022/08/09 02:28:01;;;;;;;0.10;0.10;;;12.90;99.90;;;;;;5051455;28;20046;-69
2022/08/09 02:30:31;;;;;;;0.10;0.10;;;12.90;99.90;;;;;;5052947;28;20136;-69
2022/08/09 02:32:59;;;;;;;0.00;0.00;;;12.70;99.90;;;;;;5070428;28;20490;-69
2022/08/09 02:35:26;;;;;;;0.10;0.10;;;12.70;99.90;;;;;;5061769;28;20048;-69
2022/08/09 02:37:56;;;;;;;0.17;0.17;;;12.80;99.90;;;;;;5050362;28;20517;-69
2022/08/09 02:40:23;;;;;;;0.10;0.10;;;12.90;99.90;;;;;;5052165;28;20079;-69
2022/08/09 02:42:52;;;;;;;0.10;0.10;;;12.80;99.90;;;;;;5081257;28;20110;-69
2022/08/09 02:45:28;;;;;;;0.15;0.15;;;12.70;99.90;;;;;;5084638;28;20115;-69
2022/08/09 02:47:59;;;;;;;0.17;0.10;;;12.80;99.90;;;;;;5051801;28;20033;-69
2022/08/09 02:50:29;;;;;;;0.20;0.20;;;12.80;99.90;;;;;;5086357;28;20044;-69
2022/08/09 02:53:10;;;;;;;0.10;0.10;;;12.80;99.90;;;;;;5083991;28;20075;-69
2022/08/09 02:55:39;;;;;;;0.10;0.10;;;12.80;99.90;;;;;;5051453;28;20105;-69
2022/08/09 02:58:08;;;;;;;0.10;0.10;;;12.70;99.90;;;;;;5050934;28;20063;-69
2022/08/09 03:00:35;;;;;;;0.10;0.10;;;12.70;99.90;;;;;;5069671;28;20052;-69
2022/08/09 03:03:03;;;;;;;0.10;0.10;;;12.70;99.90;;;;;;5091886;28;20247;-69
2022/08/09 03:05:30;;;;;;;0.10;0.10;;;12.60;99.90;;;;;;5053310;28;20055;-69
2022/08/09 03:07:56;;;;;;;;;;;12.50;99.90;;;;;;5051953;28;20051;-69
2022/08/09 03:10:24;;;;;;;0.15;0.10;;;12.40;99.90;;;;;;5051457;28;19928;-69
2022/08/09 03:12:52;;;;;;;0.20;0.20;;;12.40;99.90;;;;;;5050448;28;20041;-69
2022/08/09 03:15:19;;;;;;;0.10;0.10;;;12.50;99.90;;;;;;5050465;28;20186;-69
2022/08/09 03:17:46;;;;;;;0.10;0.10;;;12.50;99.90;;;;;;5050317;28;20044;-69
2022/08/09 03:20:13;;;;;;;0.20;0.20;;;12.50;99.90;;;;;;5085494;28;20082;-69
2022/08/09 03:22:43;;;;;;;0.10;0.10;;;12.50;99.90;;;;;;5084126;28;20456;-69
2022/08/09 03:25:10;;;;;;;0.00;0.00;;;12.50;99.90;;;;;;5084985;28;20119;-70
2022/08/09 03:27:36;;;;;;;0.10;0.10;;;12.40;99.90;;;;;;5083374;28;20039;-69
2022/08/09 03:30:03;;;;;;;0.10;0.10;;;12.50;99.90;;;;;;5081964;28;20047;-70
2022/08/09 03:32:30;;;;;;;0.20;0.20;;;12.40;99.90;;;;;;5084472;28;20051;-69
2022/08/09 03:34:57;;;;;;;0.10;0.10;;;12.50;99.90;;;;;;5101694;28;20482;-69
2022/08/09 03:37:22;;;;;;;0.13;0.13;;;12.30;99.90;;;;;;5056320;28;20040;-69
2022/08/09 03:39:48;;;;;;;0.10;0.10;;;12.40;99.90;;;;;;5083109;28;20048;-69
2022/08/09 03:42:14;;;;;;;0.20;0.20;;;12.30;99.90;;;;;;5049312;28;20123;-69
2022/08/09 03:44:40;;;;;;;0.10;0.10;;;12.30;99.90;;;;;;5067549;28;20087;-69
2022/08/09 03:47:05;;;;;;;0.10;0.10;;;12.30;99.90;;;;;;5067263;28;20028;-69
2022/08/09 03:49:33;;;;;;;0.10;0.10;;;12.40;99.90;;;;;;5085039;28;20052;-69
2022/08/09 03:52:00;;;;;;;0.13;0.13;;;12.40;99.90;;;;;;5050910;28;20115;-69
2022/08/09 03:54:31;;;;;;;0.10;0.10;;;12.40;99.90;;;;;;5049465;28;20045;-69
2022/08/09 03:56:59;;;;;;;0.10;0.10;;;12.30;99.90;;;;;;5082073;28;20072;-69
2022/08/09 03:59:25;;;;;;;0.00;0.00;;;12.30;99.90;;;;;;5068205;28;20483;-69
2022/08/09 04:01:52;;;;;;;0.10;0.10;;;12.30;99.90;;;;;;5082226;28;20053;-69
2022/08/09 04:04:19;;;;;;;0.10;0.10;;;12.20;99.90;;;;;;5051218;28;20483;-70
2022/08/09 04:06:44;;;;;;;;;;;12.10;99.90;;;;;;5104605;28;20044;-69
2022/08/09 04:09:12;;;;;;;0.20;0.20;;;12.30;99.90;;;;;;5057673;28;19977;-69
2022/08/09 04:12:24;;;;;;;0.20;0.20;;;12.30;99.90;;;;;;5070721;28;20089;-69
2022/08/09 04:14:49;;;;;;;0.10;0.10;;;12.20;99.90;;;;;;5008756;28;20050;-69
2022/08/09 04:17:15;;;;;;;0.00;0.00;;;12.20;99.90;;;;;;5058197;28;20105;-69
2022/08/09 04:19:41;;;;;;;0.13;0.10;;;12.10;99.90;;;;;;5071752;28;20056;-69
2022/08/09 04:22:07;;;;;;;0.10;0.10;;;12.30;99.90;;;;;;5069823;28;20139;-69
2022/08/09 04:24:32;;;;;;;0.10;0.10;;;12.10;99.90;;;;;;5072533;28;20119;-70
2022/08/09 04:26:58;;;;;;;0.00;0.00;;;12.30;99.90;;;;;;5071683;28;20109;-83
2022/08/09 04:29:24;;;;;;;0.10;0.10;;;12.10;99.90;;;;;;5089579;28;20098;-84
2022/08/09 04:31:52;;;;;;;0.10;0.10;;;12.30;99.90;;;;;;5053617;28;20040;-81
2022/08/09 04:34:18;;;;;;;0.08;0.08;;;12.30;99.90;;;;;;5034758;28;20044;-81
2022/08/09 04:36:43;;;;;;;0.05;0.05;;;12.30;99.90;;;;;;5048937;28;20501;-81
2022/08/09 04:39:09;;;;;;;0.10;0.10;;;12.20;99.90;;;;;;5036340;28;20051;-81
2022/08/09 04:41:35;;;;;;;0.00;0.00;;;12.30;99.90;;;;;;5051355;28;20632;-82
2022/08/09 04:44:03;;;;;;;0.38;0.03;;;12.40;99.90;;;;;;5085778;28;20447;-81
2022/08/09 04:46:29;;;;;;;0.00;0.00;;;12.30;99.90;;;;;;5056238;28;20098;-81
2022/08/09 04:48:54;;;;;;;0.00;0.00;;;12.50;99.90;;;;;;5056071;28;20483;-82
2022/08/09 04:51:20;;;;;;;0.03;0.00;;;12.60;99.90;;;;;;5040027;28;20036;-87
2022/08/09 04:53:46;;;;;;;0.00;0.00;;;12.60;99.90;;;;;;5031147;28;20128;-78
2022/08/09 04:56:12;;;;;;;0.00;0.00;;;12.50;99.90;;;;;;5070054;28;20082;-79
2022/08/09 04:58:37;;;;;;;0.00;0.00;;;12.50;99.90;;;;;;5051473;28;20076;-69
2022/08/09 05:01:04;;;;;;;0.10;0.05;;;12.50;99.90;;;;;;5080930;28;20502;-69
2022/08/09 05:03:30;;;;;;;0.30;0.00;;;12.50;99.90;;;;;;5050092;28;20036;-69
2022/08/09 05:05:55;;;;;;;0.10;0.10;;;12.80;99.90;;;;;;5084246;28;20121;-69
2022/08/09 05:08:21;;;;;;;0.00;0.00;;;12.70;99.90;;;;;;5086766;28;20106;-70
2022/08/09 05:10:47;;;;;;;0.00;0.00;;;12.80;99.90;;;;;;5085841;28;20048;-70
2022/08/09 05:13:13;;;;;;;0.10;0.03;;;13.10;99.90;;;;;;5087988;28;20049;-69
2022/08/09 05:15:38;;;;;;;0.00;0.00;;;13.10;99.90;;;;;;5051836;28;20045;-70
2022/08/09 05:18:04;;;;;;;0.20;0.10;;;13.10;99.90;;;;;;5048987;28;20535;-71
2022/08/09 05:20:30;;;;;;;0.10;0.10;;;13.00;99.90;;;;;;5054400;28;20123;-71
2022/08/09 05:22:56;;;;;;;0.00;0.00;;;13.30;99.90;;;;;;5035240;28;20053;-71
2022/08/09 05:25:23;;;;;;;0.05;0.00;;;13.20;99.90;;;;;;5060455;28;20040;-71
2022/08/09 05:27:51;;;;;;;0.10;0.00;;;13.30;99.90;;;;;;5074484;28;20043;-71
2022/08/09 05:30:17;;;;;;;0.00;0.00;;;13.40;99.90;;;;;;5061346;28;20044;-71
2022/08/09 05:32:44;;;;;;;0.20;0.00;;;13.50;99.90;;;;;;5063111;28;20127;-71
2022/08/09 05:35:10;;;;;;;0.00;0.00;;;13.70;99.90;;;;;;5057037;28;20040;-70
2022/08/09 05:37:36;;;;;;;0.00;0.00;;;13.70;99.90;;;;;;5051815;28;20055;-71
2022/08/09 05:40:03;;;;;;;0.10;0.10;;;13.80;99.90;;;;;;5053357;28;20055;-75
2022/08/09 05:42:29;;;;;;;0.00;0.00;;;14.20;99.90;;;;;;5088615;28;20724;-74
2022/08/09 05:44:55;;;;;;;;;;;14.40;99.90;;;;;;5054366;28;20044;-75
2022/08/09 05:47:22;;;;;;;0.00;0.00;;;14.60;99.90;;;;;;5037733;28;19923;-75
2022/08/09 05:49:52;;;;;;;0.00;0.00;;;14.60;99.90;;;;;;5086603;28;20044;-74
2022/08/09 05:52:19;;;;;;;0.25;0.10;;;14.80;99.90;;;;;;5042950;28;20051;-76
2022/08/09 05:54:45;;;;;;;0.00;0.00;;;14.70;99.90;;;;;;5073885;28;20092;-75
2022/08/09 05:57:10;;;;;;;0.30;0.10;;;15.20;99.90;;;;;;5054160;28;20040;-75
2022/08/09 05:59:36;;;;;;;0.20;0.10;;;15.30;99.90;;;;;;5087631;28;20055;-75
2022/08/09 06:02:02;;;;;;;0.00;0.00;;;15.10;99.90;;;;;;5053558;28;20059;-75
2022/08/09 06:04:28;;;;;;;0.10;0.00;;;15.60;99.90;;;;;;5031778;28;20135;-75
2022/08/09 06:06:54;;;;;;;0.10;0.10;;;15.60;99.90;;;;;;5051381;28;20063;-75
2022/08/09 06:09:20;;;;;;;0.20;0.10;;;15.60;99.90;;;;;;5067263;28;20028;-75
2022/08/09 06:11:46;;;;;;;0.22;0.20;;;15.90;99.90;;;;;;5086918;28;20457;-75
2022/08/09 06:14:11;;;;;;;0.70;0.30;;;15.80;99.90;;;;;;5037720;28;20680;-75
2022/08/09 06:16:37;;;;;;;0.10;0.10;;;16.20;99.90;;;;;;5087467;28;20197;-74
2022/08/09 06:19:04;;;;;;;0.10;0.10;;;16.40;99.90;;;;;;5052137;28;20044;-75
2022/08/09 06:21:29;;;;;;;;;;;16.20;99.90;;;;;;5069794;28;20086;-74
2022/08/09 06:23:55;;;;;;;0.73;0.40;;;16.30;99.90;;;;;;5087297;28;19955;-74
2022/08/09 06:26:22;;;;;;;1.02;0.60;;;16.60;99.90;;;;;;5053859;28;20041;-74
2022/08/09 06:28:53;;;;;;;0.90;0.40;;;16.60;99.90;;;;;;5053679;28;20044;-75
2022/08/09 06:31:18;;;;;;;1.98;0.50;;;16.80;99.90;;;;;;5087703;28;20186;-74
2022/08/09 06:33:44;;;;;;;1.73;0.88;;;17.10;99.90;;;;;;5053408;28;20515;-75
2022/08/09 06:36:10;;;;;;;2.53;0.60;;;17.10;99.90;;;;;;5053785;28;20037;-75
2022/08/09 06:38:36;;;;;;;;;;;17.50;99.90;;;;;;5037429;28;20068;-76
2022/08/09 06:41:01;;;;;;;0.85;0.50;;;17.80;99.90;;;;;;5087020;28;20044;-75
2022/08/09 06:43:27;;;;;;;;;;;18.00;99.90;;;;;;5053860;28;20054;-75
2022/08/09 06:45:53;;;;;;;0.55;0.45;;;18.10;99.90;;;;;;5087020;28;19920;-75
2022/08/09 06:48:19;;;;;;;;;;;18.40;99.90;;;;;;5070295;28;20048;-75
2022/08/09 06:50:45;;;;;;;1.88;0.55;;;18.40;99.90;;;;;;5053339;28;19923;-75
2022/08/09 06:53:11;;;;;;;0.63;0.40;;;18.50;99.90;;;;;;5053489;28;20056;-75
2022/08/09 06:55:36;;;;;;;;;;;18.40;99.90;;;;;;5053715;28;20101;-75
2022/08/09 06:58:02;;;;;;;1.42;0.70;;;18.30;99.90;;;;;;5036923;28;19970;-75
2022/08/09 07:00:28;;;;;;;0.80;0.52;;;18.50;99.90;;;;;;5053272;28;20143;-76
2022/08/09 07:02:54;;;;;;;;;;;18.50;99.90;;;;;;5053803;28;20063;-75
2022/08/09 07:05:20;;;;;;;1.27;0.60;;;18.60;99.90;;;;;;5086507;28;20379;-74
2022/08/09 07:07:45;;;;;;;2.90;0.45;;;18.80;99.90;;;;;;5036196;28;20044;-75
2022/08/09 07:10:11;;;;;;;;;;;18.90;99.90;;;;;;5053406;28;20032;-73
2022/08/09 07:12:37;;;;;;;0.90;0.60;;;18.80;99.90;;;;;;5086424;28;19920;-73
2022/08/09 07:15:03;;;;;;;;;;;19.00;99.90;;;;;;5053342;28;20048;-73
2022/08/09 07:17:29;;;;;;;0.57;0.50;;;19.20;99.90;;;;;;5070117;28;20427;-74
2022/08/09 07:19:55;;;;;;;;;;;19.40;99.90;;;;;;5040656;28;20142;-73
2022/08/09 07:22:21;;;;;;;1.15;0.50;;;19.60;99.90;;;;;;5062986;28;19920;-73
2022/08/09 07:24:46;;;;;;;0.95;0.60;;;19.70;99.90;;;;;;5029918;28;20038;-73
2022/08/09 07:27:12;;;;;;;;;;;19.90;99.90;;;;;;5030005;28;20136;-73
2022/08/09 07:29:38;;;;;;;1.08;0.60;;;20.20;99.90;;;;;;5029891;28;20011;-74
2022/08/09 07:32:05;;;;;;;1.05;0.52;;;20.70;99.90;;;;;;5029492;28;20045;-73
2022/08/09 07:34:30;;;;;;;1.27;0.68;;;21.10;99.90;;;;;;5029495;28;20045;-73
2022/08/09 07:36:56;;;;;;;;;;;21.20;99.90;;;;;;5030232;28;20041;-75
2022/08/09 07:39:22;;;;;;;1.48;0.50;;;21.40;99.90;;;;;;5013280;28;19920;-76
2022/08/09 07:41:47;;;;;;;;;;;21.80;99.90;;;;;;5030316;28;20451;-75
2022/08/09 07:44:13;;;;;;;0.40;0.40;;;22.10;99.90;;;;;;5029065;28;19917;-75
2022/08/09 07:46:39;;;;;;;;;;;22.20;99.90;;;;;;5046551;28;20038;-75
2022/08/09 07:49:05;;;;;;;0.88;0.50;;;22.10;99.90;;;;;;5062549;28;20308;-75
2022/08/09 07:51:31;;;;;;;;;;;21.70;99.90;;;;;;5029957;28;20049;-75
2022/08/09 07:53:56;;;;;;;0.77;0.40;;;21.60;99.90;;;;;;5062741;28;20354;-76
2022/08/09 07:56:22;;;;;;;;;;;21.70;99.90;;;;;;5030132;28;20041;-75
2022/08/09 07:58:47;;;;;;;0.40;0.30;;;21.90;99.90;;;;;;5029354;28;19917;-75
2022/08/09 08:01:13;;;;;;;;;;;22.30;99.90;;;;;;5029615;28;20048;-76
2022/08/09 08:03:39;;;;;;;1.25;0.50;;;22.30;99.90;;;;;;5029273;28;19921;-76
2022/08/09 08:06:05;;;;;;;0.85;0.40;;;22.20;99.90;;;;;;5029213;28;20095;-76
2022/08/09 08:08:32;;;;;;;1.25;0.60;;;21.80;99.90;;;;;;5029298;28;20527;-76
2022/08/09 08:10:57;;;;;;;0.80;0.40;;;21.30;99.90;;;;;;5029283;28;20084;-76
2022/08/09 08:13:23;;;;;;;0.65;0.38;;;20.90;99.90;;;;;;5029215;28;20084;-76
2022/08/09 08:15:49;;;;;;;0.40;0.30;;;20.60;99.90;;;;;;5029111;28;20077;-76
2022/08/09 08:18:15;;;;;;;0.50;0.28;;;20.40;99.90;;;;;;5029120;28;20072;-76
2022/08/09 08:20:40;;;;;;;0.73;0.40;;;20.20;99.90;;;;;;5029062;28;20104;-76
2022/08/09 08:23:06;;;;;;;;;;;20.40;99.90;;;;;;5046082;28;20132;-76
2022/08/09 08:25:33;;;;;;;1.52;0.40;;;20.80;99.90;;;;;;5062367;28;20324;-76
2022/08/09 08:27:59;;;;;;;0.95;0.50;;;20.90;99.90;;;;;;5029238;28;20088;-75
2022/08/09 08:30:24;;;;;;;1.20;0.55;;;20.70;99.90;;;;;;5029281;28;20148;-74
2022/08/09 08:32:53;;;;;;;;;;;20.50;99.90;;;;;;5029186;28;20405;-73
2022/08/09 08:35:19;;;;;;;0.55;0.30;;;20.40;99.90;;;;;;5062256;28;19971;-73
2022/08/09 08:37:44;;;;;;;0.30;0.30;;;20.50;99.90;;;;;;5012296;28;20038;-73
2022/08/09 08:40:10;;;;;;;;;;;20.40;99.90;;;;;;5029298;28;20048;-74
2022/08/09 08:42:36;;;;;;;0.20;0.20;;;20.50;99.90;;;;;;5028768;28;19948;-73
2022/08/09 08:45:03;;;;;;;0.10;0.10;;;20.50;99.90;;;;;;5012594;28;20103;-74
2022/08/09 08:47:29;;;;;;;0.55;0.22;;;20.50;99.90;;;;;;5028698;28;20049;-73
2022/08/09 08:49:57;;;;;;;0.15;0.15;;;20.60;99.90;;;;;;5028817;28;20041;-74
2022/08/09 08:52:28;;;;;;;0.60;0.20;;;20.50;99.90;;;;;;5028674;28;20102;-73
2022/08/09 08:54:56;;;;;;;0.43;0.20;;;20.60;99.90;;;;;;5028422;28;20500;-73
2022/08/09 08:57:23;;;;;;;0.20;0.20;;;20.70;99.90;;;;;;5030039;28;20037;-73
2022/08/09 08:59:49;;;;;;;0.40;0.10;;;20.70;99.90;;;;;;5031993;28;20042;-73
2022/08/09 09:02:25;;;;;;;0.85;0.30;;;20.70;99.90;;;;;;5032179;28;20041;-73
2022/08/09 09:05:00;;;;;;;0.25;0.25;;;20.50;99.90;;;;;;5032224;28;20198;-73
2022/08/09 09:07:29;;;;;;;1.40;0.60;;;20.50;99.90;;;;;;5032026;28;20480;-73
2022/08/09 09:09:57;;;;;;;0.77;0.38;;;20.50;99.90;;;;;;5032151;28;20049;-73
2022/08/09 09:12:26;;;;;;;0.45;0.40;;;20.50;99.90;;;;;;5031904;28;20683;-74
2022/08/09 09:14:53;;;;;;;0.93;0.40;;;20.60;99.90;;;;;;5015492;28;20775;-75
2022/08/09 09:17:19;;;;;;;1.00;0.60;;;20.60;99.90;;;;;;5031829;28;20056;-74
2022/08/09 09:19:45;;;;;;;1.67;0.70;;;20.70;99.90;;;;;;5015420;28;20053;-74
2022/08/09 09:22:14;;;;;;;1.00;0.40;;;20.70;99.90;;;;;;5031942;28;20456;-74
2022/08/09 09:24:43;;;;;;;2.08;0.60;;;20.70;99.90;;;;;;5031683;28;20034;-74
2022/08/09 09:27:10;;;;;;;1.48;0.70;;;20.70;99.90;;;;;;5015481;28;20045;-74
2022/08/09 09:29:41;;;;;;;2.15;0.75;;;20.70;99.90;;;;;;5031614;28;20040;-74
2022/08/09 09:32:08;;;;;;;16.70;2.47;;;21.00;99.90;;;;;;5015456;28;20041;-74
2022/08/09 09:34:34;;;;;;;5.15;1.15;;;21.10;99.90;;;;;;5031426;28;20469;-74
2022/08/09 09:37:04;;;;;;;1.80;0.40;;;21.10;99.90;;;;;;5031987;28;20053;-74
2022/08/09 09:39:31;;;;;;;5.20;1.00;;;21.20;99.90;;;;;;5031348;28;20477;-74
2022/08/09 09:41:57;;;;;;;2.05;0.50;;;21.10;99.90;;;;;;4999121;28;20037;-74
2022/08/09 09:44:33;;;;;;;1.42;0.30;;;21.20;99.90;;;;;;5031474;28;20489;-74
2022/08/09 09:47:13;;;;;;;1.45;0.60;;;21.60;99.90;;;;;;5026759;28;20056;-74
2022/08/09 09:49:39;;;;;;;1.98;0.50;;;22.30;99.90;;;;;;5027809;28;20041;-75
2022/08/09 09:52:09;;;;;;;1.17;0.52;;;23.00;99.90;;;;;;5029012;28;20037;-75
2022/08/09 09:54:42;;;;;;;1.35;0.43;;;23.00;99.90;;;;;;5023532;28;20570;-75
2022/08/09 09:57:21;;;;;;;1.17;0.47;;;22.90;99.90;;;;;;5027919;28;20041;-75
2022/08/09 09:59:49;;;;;;;2.22;0.40;;;22.60;99.90;;;;;;5026143;28;20432;-75
2022/08/09 10:02:17;;;;;;;0.50;0.35;;;22.70;99.90;;;;;;5029480;28;20045;-77
2022/08/09 10:04:44;;;;;;;0.32;0.30;;;23.00;99.90;;;;;;5013074;28;20099;-75
2022/08/09 10:07:21;;;;;;;0.40;0.30;;;23.10;99.90;;;;;;5026910;28;20034;-75
2022/08/09 10:09:49;;;;;;;1.83;0.50;;;22.60;99.90;;;;;;5028815;28;20033;-76
2022/08/09 10:12:28;;;;;;;0.63;0.30;;;22.60;99.90;;;;;;5062025;28;20056;-75
2022/08/09 10:15:15;;;;;;;1.60;0.60;;;23.20;99.90;;;;;;5028899;28;20452;-76
2022/08/09 10:17:50;;;;;;;0.73;0.40;;;23.30;99.90;;;;;;5024821;28;20050;-76
2022/08/09 10:20:19;;;;;;;0.60;0.30;;;23.40;99.90;;;;;;5030365;28;20065;-75
2022/08/09 10:22:46;;;;;;;1.27;0.22;;;23.40;99.90;;;;;;5027308;28;20045;-76
2022/08/09 10:25:13;;;;;;;0.38;0.30;;;23.40;99.90;;;;;;5024635;28;20048;-75
2022/08/09 10:27:40;;;;;;;0.10;0.10;;;23.70;99.90;;;;;;5029584;28;20428;-76
2022/08/09 10:30:07;;;;;;;0.55;0.30;;;24.00;98.80;;;;;;5030375;28;20500;-76
2022/08/09 10:32:33;;;;;;;0.20;0.20;;;23.80;98.10;;;;;;5025926;28;20476;-76
2022/08/09 10:34:59;;;;;;;0.80;0.20;;;23.80;98.60;;;;;;5051370;28;20040;-76
2022/08/09 10:37:27;;;;;;;0.40;0.28;;;24.00;98.00;;;;;;5033185;28;20493;-76
2022/08/09 10:39:53;;;;;;;0.13;0.10;;;24.00;99.00;;;;;;5012420;28;20124;-75
2022/08/09 10:42:20;;;;;;;0.50;0.30;;;23.90;98.40;;;;;;5026202;28;20085;-77
2022/08/09 10:45:05;;;;;;;0.43;0.20;;;24.10;99.40;;;;;;5062354;28;20461;-77
2022/08/09 10:47:56;;;;;;;0.82;0.22;;;24.00;98.70;;;;;;5030454;28;20347;-77
2022/08/09 10:50:27;;;;;;;0.38;0.13;;;23.80;98.10;;;;;;5013710;28;20072;-76
2022/08/09 10:53:09;;;;;;;0.50;0.28;;;23.80;98.90;;;;;;5029809;28;20437;-77
2022/08/09 10:55:35;;;;;;;0.20;0.20;;;23.60;98.50;;;;;;5063544;28;20120;-76
2022/08/09 10:58:01;;;;;;;0.35;0.20;;;23.40;99.20;;;;;;5029794;28;20576;-76
2022/08/09 11:00:31;;;;;;;0.50;0.22;;;23.40;98.80;;;;;;5029988;28;20107;-76
2022/08/09 11:02:58;;;;;;;0.20;0.17;;;23.20;98.60;;;;;;5046538;28;20037;-76
2022/08/09 11:05:25;;;;;;;0.75;0.30;;;23.50;99.30;;;;;;5046541;28;20048;-76
2022/08/09 11:07:50;;;;;;;0.30;0.10;;;24.00;98.70;;;;;;5030031;28;20452;-76
2022/08/09 11:10:42;;;;;;;0.15;0.10;;;24.20;97.70;;;;;;5029847;28;20038;-76
2022/08/09 11:13:18;;;;;;;0.20;0.20;;;24.00;97.40;;;;;;5023637;28;20052;-77
2022/08/09 11:15:44;;;;;;;0.35;0.20;;;23.80;98.20;;;;;;5030740;28;20106;-77
2022/08/09 11:18:44;;;;;;;0.30;0.20;;;23.90;97.60;;;;;;5025903;28;20051;-76
2022/08/09 11:21:49;;;;;;;0.17;0.10;;;24.40;97.80;;;;;;5037568;28;20080;-76
2022/08/09 11:24:14;;;;;;;0.63;0.30;;;25.10;97.70;;;;;;5027479;28;20041;-76
2022/08/09 11:26:41;;;;;;;0.10;0.10;;;25.30;97.60;;;;;;5028575;28;20048;-76
2022/08/09 11:29:08;;;;;;;0.13;0.13;;;25.80;96.70;;;;;;5059409;28;20413;-77
2022/08/09 11:31:46;;;;;;;1.10;0.20;;;26.10;96.80;;;;;;5009123;28;20094;-77
2022/08/09 11:34:33;;;;;;;0.50;0.20;;;25.90;96.90;;;;;;5058401;28;20519;-77
2022/08/09 11:37:01;;;;;;;0.30;0.20;;;25.50;96.60;;;;;;5009822;28;20041;-77
2022/08/09 11:39:26;;;;;;;0.20;0.10;;;25.00;96.00;;;;;;5010532;28;20107;-77
2022/08/09 11:41:52;;;;;;;0.20;0.08;;;24.80;96.70;;;;;;5006916;28;20051;-76
2022/08/09 11:44:18;;;;;;;0.25;0.20;;;24.50;96.30;;;;;;5045639;28;20041;-77
2022/08/09 11:46:59;;;;;;;0.50;0.20;;;24.60;96.10;;;;;;5023764;28;20046;-77
2022/08/09 11:50:03;;;;;;;0.43;0.20;;;24.60;96.80;;;;;;5025374;28;20040;-76
2022/08/09 11:52:30;;;;;;;0.20;0.20;;;24.50;96.80;;;;;;5043517;28;20111;-77
2022/08/09 11:55:31;;;;;;;0.47;0.30;;;24.30;96.20;;;;;;5011311;28;20072;-76
2022/08/09 11:57:58;;;;;;;0.20;0.10;;;24.50;97.10;;;;;;5021573;28;20780;-77
2022/08/09 12:00:24;;;;;;;0.10;0.10;;;24.60;96.80;;;;;;5041119;28;20045;-76
2022/08/09 12:02:50;;;;;;;0.45;0.15;;;25.10;96.80;;;;;;5028533;28;20033;-76
2022/08/09 12:05:16;;;;;;;0.30;0.10;;;25.30;96.90;;;;;;5025646;28;20105;-76
2022/08/09 12:07:42;;;;;;;0.20;0.10;;;25.20;96.20;;;;;;5010151;28;20528;-76
2022/08/09 12:10:10;;;;;;;0.50;0.40;;;24.90;95.90;;;;;;5061876;28;20064;-77
2022/08/09 12:12:47;;;;;;;0.32;0.20;;;24.70;97.00;;;;;;5028311;28;20068;-76
2022/08/09 12:15:24;;;;;;;0.60;0.30;;;24.80;96.30;;;;;;5028463;28;20060;-76
2022/08/09 12:17:51;;;;;;;0.50;0.28;;;25.10;96.10;;;;;;5026028;28;20083;-77
2022/08/09 12:20:19;;;;;;;0.50;0.22;;;25.20;96.40;;;;;;5039432;28;20064;-78
2022/08/09 12:22:45;;;;;;;0.65;0.30;;;25.50;96.70;;;;;;5047223;28;20049;-75
2022/08/09 12:25:11;;;;;;;0.85;0.32;;;25.60;96.30;;;;;;5049029;28;20053;-76
2022/08/09 12:27:37;;;;;;;0.73;0.30;;;25.30;95.80;;;;;;5081857;28;20037;-76
2022/08/09 12:30:05;;;;;;;0.50;0.30;;;24.80;95.90;;;;;;5032451;28;20033;-76
2022/08/09 12:32:32;;;;;;;0.52;0.20;;;24.60;96.00;;;;;;5050858;28;20049;-75
2022/08/09 12:34:59;;;;;;;0.32;0.20;;;24.90;96.40;;;;;;5078606;28;20079;-75
2022/08/09 12:37:33;;;;;;;0.57;0.25;;;25.40;96.20;;;;;;5044309;28;20092;-76
2022/08/09 12:40:08;;;;;;;0.10;0.10;;;25.40;96.10;;;;;;5050606;28;20433;-76
2022/08/09 12:42:34;;;;;;;0.35;0.30;;;25.50;95.70;;;;;;5046132;28;20429;-75
2022/08/09 12:45:03;;;;;;;0.68;0.30;;;25.40;95.40;;;;;;5085943;28;20041;-76
2022/08/09 12:47:29;;;;;;;0.38;0.20;;;25.40;95.80;;;;;;5052793;28;20402;-75
2022/08/09 12:52:45;;;;;;;0.68;0.28;;;25.90;95.60;;;;;;5051240;28;20135;-74
2022/08/09 12:55:21;;;;;;;0.28;0.25;;;25.80;94.50;;;;;;5047802;28;20124;-75
2022/08/09 12:57:47;;;;;;;0.50;0.20;;;25.70;94.80;;;;;;5052097;28;20464;-75
2022/08/09 13:00:34;;;;;;;0.20;0.20;;;25.90;94.70;;;;;;5048962;28;20123;-75
2022/08/09 13:03:01;;;;;;;0.82;0.32;;;26.00;94.70;;;;;;5051894;28;20063;-75
2022/08/09 13:05:44;;;;;;;0.68;0.50;;;25.90;94.30;;;;;;5033403;28;20041;-76